createdAt,value
2017-03-15T00:01:01.109Z,1028.42
2017-03-15T00:02:10.652Z,1028.44
2017-03-15T00:03:20.527Z,1028.52
2017-03-15T00:04:30.069Z,1028.53
2017-03-15T00:05:40.262Z,1028.58
2017-03-15T00:06:49.807Z,1028.6
2017-03-15T00:07:59.359Z,1028.61
2017-03-15T00:09:08.592Z,1028.66
2017-03-15T00:10:18.786Z,1028.64
2017-03-15T00:11:28.658Z,1028.6
2017-03-15T00:12:37.598Z,1028.56
2017-03-15T00:13:47.469Z,1028.54
2017-03-15T00:14:57.340Z,1028.62
2017-03-15T00:16:06.554Z,1028.59
2017-03-15T00:17:15.451Z,1028.6
2017-03-15T00:18:25.479Z,1028.6
2017-03-15T00:19:35.673Z,1028.59
2017-03-15T00:20:45.227Z,1028.61
2017-03-15T00:21:55.102Z,1028.57
2017-03-15T00:23:04.322Z,1028.48
2017-03-15T00:24:14.576Z,1028.52
2017-03-15T00:25:24.449Z,1028.6
2017-03-15T00:26:33.343Z,1028.62
2017-03-15T00:27:43.565Z,1028.65
2017-03-15T00:28:53.119Z,1028.72
2017-03-15T00:30:02.676Z,1028.71
2017-03-15T00:31:11.891Z,1028.68
2017-03-15T00:32:22.091Z,1028.65
2017-03-15T00:33:31.965Z,1028.62
2017-03-15T00:34:41.512Z,1028.65
2017-03-15T00:35:50.904Z,1028.63
2017-03-15T00:37:00.776Z,1028.54
2017-03-15T00:38:10.005Z,1028.56
2017-03-15T00:39:19.544Z,1028.51
2017-03-15T00:40:29.091Z,1028.47
2017-03-15T00:41:38.787Z,1028.42
2017-03-15T00:42:48.652Z,1028.45
2017-03-15T00:43:58.524Z,1028.48
2017-03-15T00:45:08.399Z,1028.47
2017-03-15T00:46:17.938Z,1028.45
2017-03-15T00:47:27.531Z,1028.49
2017-03-15T00:48:37.089Z,1028.5
2017-03-15T00:49:46.314Z,1028.53
2017-03-15T00:50:56.183Z,1028.57
2017-03-15T00:52:05.398Z,1028.57
2017-03-15T00:53:15.192Z,1028.51
2017-03-15T00:54:24.736Z,1028.56
2017-03-15T00:55:34.284Z,1028.51
2017-03-15T00:56:43.827Z,1028.46
2017-03-15T00:57:53.368Z,1028.51
2017-03-15T00:59:02.408Z,1028.47
2017-03-15T01:00:12.288Z,1028.47
2017-03-15T01:01:22.485Z,1028.47
2017-03-15T01:02:31.701Z,1028.51
2017-03-15T01:03:41.567Z,1028.43
2017-03-15T01:04:51.265Z,1028.37
2017-03-15T01:06:01.135Z,1028.36
2017-03-15T01:07:11.002Z,1028.36
2017-03-15T01:08:20.542Z,1028.32
2017-03-15T01:09:30.423Z,1028.32
2017-03-15T01:10:40.216Z,1028.28
2017-03-15T01:11:49.772Z,1028.32
2017-03-15T01:12:59.318Z,1028.41
2017-03-15T01:14:08.540Z,1028.46
2017-03-15T01:15:18.086Z,1028.52
2017-03-15T01:16:28.110Z,1028.45
2017-03-15T01:17:37.330Z,1028.42
2017-03-15T01:18:47.532Z,1028.49
2017-03-15T01:19:57.406Z,1028.47
2017-03-15T01:21:06.623Z,1028.45
2017-03-15T01:22:16.237Z,1028.49
2017-03-15T01:23:25.458Z,1028.45
2017-03-15T01:24:35.006Z,1028.44
2017-03-15T01:25:44.223Z,1028.4
2017-03-15T01:26:54.096Z,1028.4
2017-03-15T01:28:03.692Z,1028.31
2017-03-15T01:29:13.235Z,1028.37
2017-03-15T01:30:23.433Z,1028.44
2017-03-15T01:31:33.627Z,1028.34
2017-03-15T01:32:43.506Z,1028.22
2017-03-15T01:33:53.197Z,1028.25
2017-03-15T01:35:02.739Z,1028.24
2017-03-15T01:36:12.282Z,1028.16
2017-03-15T01:37:21.828Z,1028.1
2017-03-15T01:38:31.378Z,1028.15
2017-03-15T01:39:40.980Z,1028.19
2017-03-15T01:40:50.521Z,1028.2
2017-03-15T01:41:59.738Z,1028.18
2017-03-15T01:43:08.959Z,1028.24
2017-03-15T01:44:19.154Z,1028.28
2017-03-15T01:45:28.676Z,1028.31
2017-03-15T01:46:38.549Z,1028.22
2017-03-15T01:47:48.091Z,1028.28
2017-03-15T01:48:57.633Z,1028.4
2017-03-15T01:50:07.175Z,1028.36
2017-03-15T01:51:16.545Z,1028.27
2017-03-15T01:52:26.089Z,1028.27
2017-03-15T01:53:35.634Z,1028.37
2017-03-15T01:54:45.827Z,1028.39
2017-03-15T01:55:55.072Z,1028.34
2017-03-15T01:57:05.311Z,1028.33
2017-03-15T01:58:15.177Z,1028.31
2017-03-15T01:59:24.726Z,1028.37
2017-03-15T02:00:33.955Z,1028.39
2017-03-15T02:01:44.149Z,1028.4
2017-03-15T02:02:54.116Z,1028.41
2017-03-15T02:04:03.982Z,1028.43
2017-03-15T02:05:13.203Z,1028.41
2017-03-15T02:06:23.079Z,1028.43
2017-03-15T02:07:32.631Z,1028.43
2017-03-15T02:08:42.647Z,1028.42
2017-03-15T02:09:52.515Z,1028.37
2017-03-15T02:11:01.735Z,1028.34
2017-03-15T02:12:11.634Z,1028.32
2017-03-15T02:13:21.180Z,1028.33
2017-03-15T02:14:31.197Z,1028.36
2017-03-15T02:15:41.078Z,1028.27
2017-03-15T02:16:50.305Z,1028.26
2017-03-15T02:17:59.851Z,1028.35
2017-03-15T02:19:09.397Z,1028.33
2017-03-15T02:20:19.315Z,1028.36
2017-03-15T02:21:29.189Z,1028.41
2017-03-15T02:22:38.740Z,1028.38
2017-03-15T02:23:48.284Z,1028.38
2017-03-15T02:24:57.825Z,1028.38
2017-03-15T02:26:07.625Z,1028.32
2017-03-15T02:27:17.490Z,1028.32
2017-03-15T02:28:26.706Z,1028.37
2017-03-15T02:29:35.924Z,1028.38
2017-03-15T02:30:44.818Z,1028.44
2017-03-15T02:31:55.159Z,1028.4
2017-03-15T02:33:04.045Z,1028.44
2017-03-15T02:34:13.259Z,1028.42
2017-03-15T02:35:22.825Z,1028.43
2017-03-15T02:36:32.362Z,1028.46
2017-03-15T02:37:42.535Z,1028.47
2017-03-15T02:38:52.432Z,1028.5
2017-03-15T02:40:02.633Z,1028.54
2017-03-15T02:41:12.835Z,1028.58
2017-03-15T02:42:22.707Z,1028.51
2017-03-15T02:43:32.409Z,1028.53
2017-03-15T02:44:42.603Z,1028.53
2017-03-15T02:45:52.160Z,1028.55
2017-03-15T02:47:01.719Z,1028.46
2017-03-15T02:48:11.587Z,1028.5
2017-03-15T02:49:20.907Z,1028.53
2017-03-15T02:50:30.450Z,1028.55
2017-03-15T02:51:39.677Z,1028.57
2017-03-15T02:52:49.549Z,1028.57
2017-03-15T02:53:59.095Z,1028.55
2017-03-15T02:55:08.962Z,1028.54
2017-03-15T02:56:18.833Z,1028.59
2017-03-15T02:57:28.701Z,1028.55
2017-03-15T02:58:38.248Z,1028.54
2017-03-15T02:59:48.440Z,1028.53
2017-03-15T03:00:57.808Z,1028.54
2017-03-15T03:02:07.676Z,1028.58
2017-03-15T03:03:17.228Z,1028.62
2017-03-15T03:04:26.120Z,1028.61
2017-03-15T03:05:36.314Z,1028.66
2017-03-15T03:06:46.006Z,1028.65
2017-03-15T03:07:55.571Z,1028.66
2017-03-15T03:09:05.444Z,1028.61
2017-03-15T03:10:15.960Z,1028.6
2017-03-15T03:11:25.829Z,1028.66
2017-03-15T03:12:35.747Z,1028.67
2017-03-15T03:13:45.622Z,1028.59
2017-03-15T03:14:55.170Z,1028.63
2017-03-15T03:16:04.734Z,1028.68
2017-03-15T03:17:14.283Z,1028.65
2017-03-15T03:18:24.317Z,1028.63
2017-03-15T03:19:33.891Z,1028.64
2017-03-15T03:20:43.762Z,1028.61
2017-03-15T03:21:53.638Z,1028.66
2017-03-15T03:23:03.510Z,1028.72
2017-03-15T03:24:13.303Z,1028.69
2017-03-15T03:25:22.854Z,1028.7
2017-03-15T03:26:32.080Z,1028.63
2017-03-15T03:27:42.300Z,1028.66
2017-03-15T03:28:51.526Z,1028.68
2017-03-15T03:30:01.143Z,1028.7
2017-03-15T03:31:10.357Z,1028.64
2017-03-15T03:32:19.901Z,1028.66
2017-03-15T03:33:29.127Z,1028.75
2017-03-15T03:34:38.998Z,1028.74
2017-03-15T03:35:48.701Z,1028.72
2017-03-15T03:36:57.913Z,1028.74
2017-03-15T03:38:07.779Z,1028.7
2017-03-15T03:39:17.967Z,1028.77
2017-03-15T03:40:27.513Z,1028.72
2017-03-15T03:41:37.202Z,1028.69
2017-03-15T03:42:47.070Z,1028.74
2017-03-15T03:43:56.611Z,1028.74
2017-03-15T03:45:06.157Z,1028.75
2017-03-15T03:46:16.027Z,1028.7
2017-03-15T03:47:25.400Z,1028.74
2017-03-15T03:48:34.939Z,1028.73
2017-03-15T03:49:44.481Z,1028.75
2017-03-15T03:50:54.373Z,1028.71
2017-03-15T03:52:03.263Z,1028.67
2017-03-15T03:53:12.204Z,1028.65
2017-03-15T03:54:22.399Z,1028.67
2017-03-15T03:55:32.594Z,1028.69
2017-03-15T03:56:42.134Z,1028.77
2017-03-15T03:57:51.676Z,1028.76
2017-03-15T03:59:01.225Z,1028.8
2017-03-15T04:00:11.097Z,1028.76
2017-03-15T04:01:20.966Z,1028.78
2017-03-15T04:02:31.161Z,1028.76
2017-03-15T04:03:40.705Z,1028.79
2017-03-15T04:04:50.294Z,1028.84
2017-03-15T04:05:59.841Z,1028.83
2017-03-15T04:07:09.383Z,1028.84
2017-03-15T04:08:19.248Z,1028.83
2017-03-15T04:09:28.801Z,1028.89
2017-03-15T04:10:38.878Z,1028.91
2017-03-15T04:11:48.747Z,1028.87
2017-03-15T04:12:57.963Z,1028.97
2017-03-15T04:14:07.833Z,1028.95
2017-03-15T04:15:17.699Z,1029.04
2017-03-15T04:16:26.980Z,1029.04
2017-03-15T04:17:37.176Z,1029.02
2017-03-15T04:18:46.721Z,1029.04
2017-03-15T04:19:56.599Z,1029.09
2017-03-15T04:21:06.465Z,1029.11
2017-03-15T04:22:16.104Z,1029.14
2017-03-15T04:23:26.299Z,1029.07
2017-03-15T04:24:35.514Z,1029.11
2017-03-15T04:25:45.059Z,1029.11
2017-03-15T04:26:54.280Z,1029.08
2017-03-15T04:28:04.293Z,1029.06
2017-03-15T04:29:13.509Z,1029.03
2017-03-15T04:30:23.711Z,1029.03
2017-03-15T04:31:34.227Z,1029.03
2017-03-15T04:32:43.777Z,1029.06
2017-03-15T04:33:53.202Z,1029.09
2017-03-15T04:35:02.432Z,1029.06
2017-03-15T04:36:11.654Z,1029.12
2017-03-15T04:37:21.527Z,1029.09
2017-03-15T04:38:31.065Z,1029.12
2017-03-15T04:39:40.763Z,1029.14
2017-03-15T04:40:50.631Z,1029.08
2017-03-15T04:41:59.843Z,1029.13
2017-03-15T04:43:09.063Z,1029.11
2017-03-15T04:44:19.253Z,1029.2
2017-03-15T04:45:29.498Z,1029.15
2017-03-15T04:46:39.383Z,1029.17
2017-03-15T04:47:49.250Z,1029.17
2017-03-15T04:48:59.121Z,1029.16
2017-03-15T04:50:08.989Z,1029.17
2017-03-15T04:51:18.531Z,1029.24
2017-03-15T04:52:28.080Z,1029.17
2017-03-15T04:53:38.270Z,1029.19
2017-03-15T04:54:47.491Z,1029.14
2017-03-15T04:55:57.364Z,1029.13
2017-03-15T04:57:06.759Z,1029.17
2017-03-15T04:58:16.628Z,1029.12
2017-03-15T04:59:26.173Z,1029.15
2017-03-15T05:00:36.687Z,1029.19
2017-03-15T05:01:46.554Z,1029.23
2017-03-15T05:02:56.151Z,1029.16
2017-03-15T05:04:05.696Z,1029.2
2017-03-15T05:05:15.251Z,1029.31
2017-03-15T05:06:24.793Z,1029.26
2017-03-15T05:07:34.342Z,1029.26
2017-03-15T05:08:44.187Z,1029.17
2017-03-15T05:09:53.081Z,1029.23
2017-03-15T05:11:02.949Z,1029.22
2017-03-15T05:12:12.817Z,1029.24
2017-03-15T05:13:22.031Z,1029.21
2017-03-15T05:14:32.633Z,1029.13
2017-03-15T05:15:42.174Z,1029.09
2017-03-15T05:16:51.714Z,1029.2
2017-03-15T05:18:01.251Z,1029.21
2017-03-15T05:19:10.790Z,1029.17
2017-03-15T05:20:20.805Z,1029.17
2017-03-15T05:21:30.019Z,1029.16
2017-03-15T05:22:39.884Z,1029.16
2017-03-15T05:23:49.429Z,1029.16
2017-03-15T05:24:58.967Z,1029.2
2017-03-15T05:26:08.265Z,1029.26
2017-03-15T05:27:17.152Z,1029.25
2017-03-15T05:28:27.367Z,1029.21
2017-03-15T05:29:36.908Z,1029.22
2017-03-15T05:30:46.127Z,1029.18
2017-03-15T05:31:55.819Z,1029.19
2017-03-15T05:33:05.356Z,1029.17
2017-03-15T05:34:15.222Z,1029.21
2017-03-15T05:35:25.409Z,1029.23
2017-03-15T05:36:34.622Z,1029.24
2017-03-15T05:37:44.168Z,1029.22
2017-03-15T05:38:54.360Z,1029.21
2017-03-15T05:40:03.912Z,1029.3
2017-03-15T05:41:13.453Z,1029.31
2017-03-15T05:42:23.005Z,1029.34
2017-03-15T05:43:33.348Z,1029.3
2017-03-15T05:44:43.214Z,1029.37
2017-03-15T05:45:52.761Z,1029.34
2017-03-15T05:47:01.980Z,1029.41
2017-03-15T05:48:11.524Z,1029.39
2017-03-15T05:49:21.789Z,1029.37
2017-03-15T05:50:30.696Z,1029.36
2017-03-15T05:51:40.891Z,1029.42
2017-03-15T05:52:50.769Z,1029.42
2017-03-15T05:54:00.638Z,1029.37
2017-03-15T05:55:10.700Z,1029.38
2017-03-15T05:56:19.916Z,1029.45
2017-03-15T05:57:29.133Z,1029.48
2017-03-15T05:58:38.354Z,1029.48
2017-03-15T05:59:48.549Z,1029.47
2017-03-15T06:00:57.913Z,1029.52
2017-03-15T06:02:07.775Z,1029.52
2017-03-15T06:03:17.647Z,1029.55
2017-03-15T06:04:26.545Z,1029.54
2017-03-15T06:05:36.419Z,1029.65
2017-03-15T06:06:46.115Z,1029.59
2017-03-15T06:07:55.007Z,1029.56
2017-03-15T06:09:05.210Z,1029.59
2017-03-15T06:10:15.078Z,1029.63
2017-03-15T06:11:24.616Z,1029.67
2017-03-15T06:12:34.487Z,1029.69
2017-03-15T06:13:44.028Z,1029.66
2017-03-15T06:14:54.224Z,1029.71
2017-03-15T06:16:03.763Z,1029.69
2017-03-15T06:17:13.315Z,1029.66
2017-03-15T06:18:23.005Z,1029.74
2017-03-15T06:19:32.875Z,1029.74
2017-03-15T06:20:42.100Z,1029.75
2017-03-15T06:21:52.297Z,1029.82
2017-03-15T06:23:02.492Z,1029.8
2017-03-15T06:24:12.288Z,1029.79
2017-03-15T06:25:21.826Z,1029.73
2017-03-15T06:26:31.705Z,1029.7
2017-03-15T06:27:41.906Z,1029.75
2017-03-15T06:28:51.804Z,1029.8
2017-03-15T06:30:01.721Z,1029.8
2017-03-15T06:31:11.908Z,1029.78
2017-03-15T06:32:21.127Z,1029.82
2017-03-15T06:33:30.673Z,1029.8
2017-03-15T06:34:39.567Z,1029.86
2017-03-15T06:35:48.956Z,1029.81
2017-03-15T06:36:58.825Z,1029.89
2017-03-15T06:38:08.368Z,1029.86
2017-03-15T06:39:18.242Z,1029.91
2017-03-15T06:40:27.463Z,1029.89
2017-03-15T06:41:37.435Z,1029.87
2017-03-15T06:42:47.949Z,1029.85
2017-03-15T06:43:58.471Z,1029.89
2017-03-15T06:45:08.014Z,1029.9
2017-03-15T06:46:16.895Z,1029.9
2017-03-15T06:47:26.029Z,1029.99
2017-03-15T06:48:35.254Z,1030
2017-03-15T06:49:45.120Z,1029.91
2017-03-15T06:50:54.989Z,1029.99
2017-03-15T06:52:04.859Z,1029.97
2017-03-15T06:53:14.977Z,1029.97
2017-03-15T06:54:24.196Z,1029.96
2017-03-15T06:55:34.419Z,1030
2017-03-15T06:56:43.764Z,1030.01
2017-03-15T06:57:53.020Z,1030.03
2017-03-15T06:59:02.567Z,1030.02
2017-03-15T07:00:11.470Z,1030.05
2017-03-15T07:01:21.013Z,1030.1
2017-03-15T07:02:30.579Z,1030.12
2017-03-15T07:03:40.259Z,1029.97
2017-03-15T07:04:49.773Z,1030.01
2017-03-15T07:05:59.840Z,1030.14
2017-03-15T07:07:08.832Z,1030.02
2017-03-15T07:08:18.654Z,1030.08
2017-03-15T07:09:28.934Z,1030.14
2017-03-15T07:10:38.426Z,1030.15
2017-03-15T07:11:47.974Z,1030.15
2017-03-15T07:12:57.844Z,1030.17
2017-03-15T07:14:07.741Z,1030.14
2017-03-15T07:15:17.933Z,1030.19
2017-03-15T07:16:28.148Z,1030.19
2017-03-15T07:17:38.016Z,1030.17
2017-03-15T07:18:47.232Z,1030.14
2017-03-15T07:19:56.776Z,1030.19
2017-03-15T07:21:05.997Z,1030.18
2017-03-15T07:22:15.887Z,1030.22
2017-03-15T07:23:25.102Z,1030.17
2017-03-15T07:24:34.753Z,1030.16
2017-03-15T07:25:44.620Z,1030.13
2017-03-15T07:26:54.166Z,1030.13
2017-03-15T07:28:03.714Z,1030.14
2017-03-15T07:29:13.286Z,1030.17
2017-03-15T07:30:23.313Z,1030.1
2017-03-15T07:31:32.923Z,1030.09
2017-03-15T07:32:42.789Z,1030.18
2017-03-15T07:33:52.339Z,1030.23
2017-03-15T07:35:01.880Z,1030.16
2017-03-15T07:36:11.928Z,1030.28
2017-03-15T07:37:22.118Z,1030.23
2017-03-15T07:38:31.688Z,1030.27
2017-03-15T07:39:41.613Z,1030.21
2017-03-15T07:40:51.503Z,1030.25
2017-03-15T07:42:01.052Z,1030.27
2017-03-15T07:43:10.778Z,1030.28
2017-03-15T07:44:20.795Z,1030.25
2017-03-15T07:45:30.700Z,1030.29
2017-03-15T07:46:40.268Z,1030.26
2017-03-15T07:47:49.469Z,1030.24
2017-03-15T07:48:58.708Z,1030.33
2017-03-15T07:50:08.633Z,1030.31
2017-03-15T07:51:17.911Z,1030.27
2017-03-15T07:52:27.892Z,1030.27
2017-03-15T07:53:38.107Z,1030.36
2017-03-15T07:54:47.755Z,1030.41
2017-03-15T07:55:57.364Z,1030.41
2017-03-15T07:57:07.791Z,1030.41
2017-03-15T07:58:17.792Z,1030.39
2017-03-15T07:59:27.046Z,1030.38
2017-03-15T08:00:37.119Z,1030.36
2017-03-15T08:01:47.180Z,1030.39
2017-03-15T08:02:57.708Z,1030.45
2017-03-15T08:04:09.893Z,1030.51
2017-03-15T08:05:22.340Z,1030.51
2017-03-15T08:06:33.577Z,1030.53
2017-03-15T08:07:45.116Z,1030.58
2017-03-15T08:08:54.350Z,1030.62
2017-03-15T08:10:03.634Z,1030.58
2017-03-15T08:11:13.611Z,1030.61
2017-03-15T08:12:23.494Z,1030.67
2017-03-15T08:13:33.425Z,1030.7
2017-03-15T08:14:43.357Z,1030.66
2017-03-15T08:15:53.556Z,1030.6
2017-03-15T08:17:04.267Z,1030.71
2017-03-15T08:18:13.862Z,1030.65
2017-03-15T08:19:24.090Z,1030.65
2017-03-15T08:20:33.531Z,1030.63
2017-03-15T08:21:43.363Z,1030.65
2017-03-15T08:22:53.579Z,1030.66
2017-03-15T08:24:03.222Z,1030.72
2017-03-15T08:25:16.945Z,1030.72
2017-03-15T08:26:28.759Z,1030.72
2017-03-15T08:27:40.998Z,1030.67
2017-03-15T08:28:53.923Z,1030.69
2017-03-15T08:30:04.916Z,1030.68
2017-03-15T08:31:14.612Z,1030.69
2017-03-15T08:32:23.513Z,1030.66
2017-03-15T08:33:32.404Z,1030.67
2017-03-15T08:34:41.637Z,1030.69
2017-03-15T08:35:50.889Z,1030.67
2017-03-15T08:37:00.476Z,1030.71
2017-03-15T08:38:10.348Z,1030.74
2017-03-15T08:39:20.224Z,1030.82
2017-03-15T08:40:29.765Z,1030.74
2017-03-15T08:41:39.001Z,1030.75
2017-03-15T08:42:47.992Z,1030.72
2017-03-15T08:43:57.212Z,1030.8
2017-03-15T08:45:07.117Z,1030.83
2017-03-15T08:46:17.319Z,1030.85
2017-03-15T08:47:27.188Z,1030.88
2017-03-15T08:48:37.686Z,1030.86
2017-03-15T08:49:47.231Z,1030.87
2017-03-15T08:50:56.457Z,1030.85
2017-03-15T08:52:05.681Z,1030.84
2017-03-15T08:53:15.221Z,1030.77
2017-03-15T08:54:24.821Z,1030.8
2017-03-15T08:55:34.371Z,1030.82
2017-03-15T08:56:43.911Z,1030.86
2017-03-15T08:57:53.461Z,1030.81
2017-03-15T08:59:02.355Z,1030.83
2017-03-15T09:00:11.292Z,1030.85
2017-03-15T09:01:20.515Z,1030.91
2017-03-15T09:02:29.726Z,1030.94
2017-03-15T09:03:38.947Z,1030.88
2017-03-15T09:04:48.168Z,1030.98
2017-03-15T09:05:57.544Z,1030.97
2017-03-15T09:07:07.087Z,1031.06
2017-03-15T09:08:16.303Z,1030.99
2017-03-15T09:09:25.515Z,1030.99
2017-03-15T09:10:35.057Z,1031.05
2017-03-15T09:11:44.099Z,1030.99
2017-03-15T09:12:53.325Z,1031.03
2017-03-15T09:14:03.196Z,1031.04
2017-03-15T09:15:12.417Z,1031.01
2017-03-15T09:16:21.963Z,1031.06
2017-03-15T09:17:31.132Z,1031.09
2017-03-15T09:18:40.353Z,1031.02
2017-03-15T09:19:49.245Z,1031.01
2017-03-15T09:20:58.137Z,1030.98
2017-03-15T09:22:07.354Z,1031.01
2017-03-15T09:23:16.719Z,1031.03
2017-03-15T09:24:25.624Z,1031.07
2017-03-15T09:25:34.842Z,1031.08
2017-03-15T09:26:43.740Z,1031.13
2017-03-15T09:27:53.295Z,1031.11
2017-03-15T09:29:02.771Z,1031.1
2017-03-15T09:30:12.644Z,1031.16
2017-03-15T09:31:22.508Z,1031.14
2017-03-15T09:32:32.049Z,1031.08
2017-03-15T09:33:41.917Z,1031.12
2017-03-15T09:34:51.389Z,1031.22
2017-03-15T09:36:00.973Z,1031.11
2017-03-15T09:37:10.192Z,1031.12
2017-03-15T09:38:19.411Z,1031.12
2017-03-15T09:39:28.969Z,1031.19
2017-03-15T09:40:38.892Z,1031.2
2017-03-15T09:41:48.767Z,1031.22
2017-03-15T09:42:58.301Z,1031.2
2017-03-15T09:44:07.512Z,1031.17
2017-03-15T09:45:17.060Z,1031.22
2017-03-15T09:46:26.752Z,1031.22
2017-03-15T09:47:36.302Z,1031.22
2017-03-15T09:48:46.172Z,1031.19
2017-03-15T09:49:55.396Z,1031.18
2017-03-15T09:51:05.267Z,1031.26
2017-03-15T09:52:14.463Z,1031.22
2017-03-15T09:53:23.711Z,1031.22
2017-03-15T09:54:32.603Z,1031.16
2017-03-15T09:55:41.498Z,1031.2
2017-03-15T09:56:50.716Z,1031.23
2017-03-15T09:57:59.776Z,1031.21
2017-03-15T09:59:08.670Z,1031.23
2017-03-15T10:00:17.558Z,1031.25
2017-03-15T10:01:26.450Z,1031.27
2017-03-15T10:02:36.343Z,1031.31
2017-03-15T10:03:45.285Z,1031.3
2017-03-15T10:04:54.178Z,1031.29
2017-03-15T10:06:03.398Z,1031.23
2017-03-15T10:07:12.296Z,1031.2
2017-03-15T10:08:21.184Z,1031.25
2017-03-15T10:09:30.876Z,1031.33
2017-03-15T10:10:40.422Z,1031.3
2017-03-15T10:11:49.313Z,1031.3
2017-03-15T10:12:58.853Z,1031.27
2017-03-15T10:14:08.399Z,1031.28
2017-03-15T10:15:17.668Z,1031.31
2017-03-15T10:16:26.886Z,1031.29
2017-03-15T10:17:35.786Z,1031.36
2017-03-15T10:18:44.676Z,1031.4
2017-03-15T10:19:53.563Z,1031.31
2017-03-15T10:21:02.932Z,1031.29
2017-03-15T10:22:11.824Z,1031.29
2017-03-15T10:23:20.712Z,1031.33
2017-03-15T10:24:29.938Z,1031.36
2017-03-15T10:25:38.830Z,1031.31
2017-03-15T10:26:48.526Z,1031.31
2017-03-15T10:27:57.742Z,1031.32
2017-03-15T10:29:06.962Z,1031.26
2017-03-15T10:30:16.185Z,1031.22
2017-03-15T10:31:25.073Z,1031.21
2017-03-15T10:32:34.112Z,1031.3
2017-03-15T10:33:43.326Z,1031.22
2017-03-15T10:34:52.239Z,1031.21
2017-03-15T10:36:02.116Z,1031.19
2017-03-15T10:37:11.013Z,1031.19
2017-03-15T10:38:20.375Z,1031.24
2017-03-15T10:39:29.298Z,1031.25
2017-03-15T10:40:38.191Z,1031.24
2017-03-15T10:41:47.087Z,1031.19
2017-03-15T10:42:56.304Z,1031.19
2017-03-15T10:44:05.568Z,1031.21
2017-03-15T10:45:14.789Z,1031.22
2017-03-15T10:46:24.006Z,1031.28
2017-03-15T10:47:33.225Z,1031.24
2017-03-15T10:48:42.111Z,1031.28
2017-03-15T10:49:51.802Z,1031.26
2017-03-15T10:51:01.017Z,1031.3
2017-03-15T10:52:09.913Z,1031.23
2017-03-15T10:53:19.790Z,1031.24
2017-03-15T10:54:29.336Z,1031.24
2017-03-15T10:55:38.479Z,1031.22
2017-03-15T10:56:48.373Z,1031.29
2017-03-15T10:57:57.915Z,1031.25
2017-03-15T10:59:08.113Z,1031.26
2017-03-15T11:00:17.004Z,1031.23
2017-03-15T11:01:26.569Z,1031.26
2017-03-15T11:02:35.464Z,1031.28
2017-03-15T11:03:44.683Z,1031.27
2017-03-15T11:04:53.899Z,1031.38
2017-03-15T11:06:02.792Z,1031.29
2017-03-15T11:07:12.367Z,1031.29
2017-03-15T11:08:22.232Z,1031.29
2017-03-15T11:09:31.125Z,1031.36
2017-03-15T11:10:40.016Z,1031.35
2017-03-15T11:11:49.254Z,1031.3
2017-03-15T11:12:58.289Z,1031.39
2017-03-15T11:14:07.177Z,1031.35
2017-03-15T11:15:16.070Z,1031.33
2017-03-15T11:16:25.286Z,1031.29
2017-03-15T11:17:34.177Z,1031.27
2017-03-15T11:18:43.073Z,1031.24
2017-03-15T11:19:51.969Z,1031.31
2017-03-15T11:21:00.855Z,1031.2
2017-03-15T11:22:10.071Z,1031.22
2017-03-15T11:23:19.638Z,1031.15
2017-03-15T11:24:29.009Z,1031.19
2017-03-15T11:25:37.927Z,1031.16
2017-03-15T11:26:46.821Z,1031.15
2017-03-15T11:27:55.709Z,1031.15
2017-03-15T11:29:04.601Z,1031.15
2017-03-15T11:30:13.965Z,1031.13
2017-03-15T11:31:23.830Z,1031.18
2017-03-15T11:32:33.700Z,1031.16
2017-03-15T11:33:42.917Z,1031.18
2017-03-15T11:34:52.137Z,1031.11
2017-03-15T11:36:01.178Z,1031.17
2017-03-15T11:37:10.068Z,1031.17
2017-03-15T11:38:19.610Z,1031.12
2017-03-15T11:39:29.150Z,1031.13
2017-03-15T11:40:38.037Z,1031.1
2017-03-15T11:41:46.981Z,1031.09
2017-03-15T11:42:56.203Z,1031.04
2017-03-15T11:44:05.750Z,1031.06
2017-03-15T11:45:14.974Z,1031.03
2017-03-15T11:46:24.191Z,1031.04
2017-03-15T11:47:33.993Z,1031.07
2017-03-15T11:48:42.881Z,1031.06
2017-03-15T11:49:51.772Z,1031.06
2017-03-15T11:51:01.639Z,1030.99
2017-03-15T11:52:10.530Z,1030.98
2017-03-15T11:53:20.127Z,1030.99
2017-03-15T11:54:29.346Z,1031.01
2017-03-15T11:55:38.560Z,1031
2017-03-15T11:56:47.778Z,1031.01
2017-03-15T11:57:57.318Z,1030.96
2017-03-15T11:59:06.785Z,1031.01
2017-03-15T12:00:15.995Z,1030.92
2017-03-15T12:01:25.544Z,1031.02
2017-03-15T12:02:34.761Z,1030.93
2017-03-15T12:03:43.976Z,1030.89
2017-03-15T12:04:53.437Z,1030.94
2017-03-15T12:06:02.658Z,1030.96
2017-03-15T12:07:12.200Z,1030.89
2017-03-15T12:08:21.416Z,1030.93
2017-03-15T12:09:30.311Z,1030.9
2017-03-15T12:10:39.400Z,1030.88
2017-03-15T12:11:48.630Z,1030.9
2017-03-15T12:12:57.841Z,1030.95
2017-03-15T12:14:07.057Z,1030.94
2017-03-15T12:15:16.273Z,1030.95
2017-03-15T12:16:25.162Z,1030.93
2017-03-15T12:17:34.060Z,1030.96
2017-03-15T12:18:43.273Z,1030.95
2017-03-15T12:19:52.496Z,1030.92
2017-03-15T12:21:01.386Z,1030.9
2017-03-15T12:22:10.629Z,1030.92
2017-03-15T12:23:19.518Z,1030.96
2017-03-15T12:24:28.409Z,1030.92
2017-03-15T12:25:37.302Z,1030.88
2017-03-15T12:26:46.844Z,1031.17
2017-03-15T12:27:56.363Z,1030.91
2017-03-15T12:29:05.581Z,1030.86
2017-03-15T12:30:14.797Z,1030.88
2017-03-15T12:31:24.017Z,1030.91
2017-03-15T12:32:32.915Z,1030.9
2017-03-15T12:33:42.063Z,1030.89
2017-03-15T12:34:51.281Z,1030.86
2017-03-15T12:36:00.174Z,1030.88
2017-03-15T12:37:09.390Z,1030.84
2017-03-15T12:38:18.608Z,1030.83
2017-03-15T12:39:27.980Z,1030.84
2017-03-15T12:40:37.197Z,1030.89
2017-03-15T12:41:46.085Z,1030.91
2017-03-15T12:42:55.298Z,1030.89
2017-03-15T12:44:04.188Z,1030.95
2017-03-15T12:45:13.451Z,1030.92
2017-03-15T12:46:22.341Z,1030.86
2017-03-15T12:47:31.231Z,1030.93
2017-03-15T12:48:40.120Z,1030.97
2017-03-15T12:49:49.008Z,1030.9
2017-03-15T12:50:58.046Z,1031
2017-03-15T12:52:06.939Z,1030.93
2017-03-15T12:53:15.830Z,1030.87
2017-03-15T12:54:24.719Z,1030.82
2017-03-15T12:55:33.610Z,1030.78
2017-03-15T12:56:42.606Z,1030.84
2017-03-15T12:57:51.498Z,1030.78
2017-03-15T12:59:00.392Z,1030.76
2017-03-15T13:00:09.282Z,1030.82
2017-03-15T13:01:18.503Z,1030.86
2017-03-15T13:02:27.557Z,1030.88
2017-03-15T13:03:36.453Z,1030.81
2017-03-15T13:04:45.345Z,1030.84
2017-03-15T13:05:54.241Z,1030.85
2017-03-15T13:07:03.136Z,1030.81
2017-03-15T13:08:12.080Z,1030.83
2017-03-15T13:09:21.301Z,1030.8
2017-03-15T13:10:30.193Z,1030.81
2017-03-15T13:11:39.418Z,1030.81
2017-03-15T13:12:48.650Z,1030.75
2017-03-15T13:13:57.928Z,1030.86
2017-03-15T13:15:06.824Z,1030.81
2017-03-15T13:16:15.721Z,1030.81
2017-03-15T13:17:24.617Z,1030.81
2017-03-15T13:18:33.510Z,1030.87
2017-03-15T13:19:42.963Z,1030.87
2017-03-15T13:20:52.508Z,1030.86
2017-03-15T13:22:02.050Z,1030.86
2017-03-15T13:23:10.944Z,1030.81
2017-03-15T13:24:19.836Z,1030.83
2017-03-15T13:25:29.206Z,1030.83
2017-03-15T13:26:38.096Z,1030.75
2017-03-15T13:27:47.315Z,1030.84
2017-03-15T13:28:56.210Z,1030.91
2017-03-15T13:30:05.108Z,1030.86
2017-03-15T13:31:14.479Z,1030.82
2017-03-15T13:32:23.697Z,1030.8
2017-03-15T13:33:32.591Z,1030.75
2017-03-15T13:34:41.486Z,1030.76
2017-03-15T13:35:50.374Z,1030.68
2017-03-15T13:36:59.699Z,1030.75
2017-03-15T13:38:09.570Z,1030.75
2017-03-15T13:39:19.114Z,1030.81
2017-03-15T13:40:28.335Z,1030.78
2017-03-15T13:41:37.227Z,1030.82
2017-03-15T13:42:46.273Z,1030.77
2017-03-15T13:43:55.493Z,1030.86
2017-03-15T13:45:04.384Z,1030.81
2017-03-15T13:46:13.278Z,1030.79
2017-03-15T13:47:22.495Z,1030.86
2017-03-15T13:48:32.371Z,1030.81
2017-03-15T13:49:41.262Z,1030.82
2017-03-15T13:50:50.159Z,1030.81
2017-03-15T13:51:59.050Z,1030.82
2017-03-15T13:53:07.951Z,1030.84
2017-03-15T13:54:17.221Z,1030.85
2017-03-15T13:55:26.438Z,1030.87
2017-03-15T13:56:35.658Z,1030.84
2017-03-15T13:57:44.549Z,1030.86
2017-03-15T13:58:53.785Z,1030.88
2017-03-15T14:00:02.730Z,1030.81
2017-03-15T14:01:11.622Z,1030.8
2017-03-15T14:02:20.513Z,1030.8
2017-03-15T14:03:29.407Z,1030.8
2017-03-15T14:04:38.625Z,1030.84